createdAt,value
2023-05-04T00:02:11.738Z,8.70
2023-05-04T00:04:38.670Z,8.30
2023-05-04T00:07:05.721Z,9.40
2023-05-04T00:09:32.630Z,9.30
2023-05-04T00:11:59.502Z,8.60
2023-05-04T00:14:26.744Z,9.20
2023-05-04T00:16:53.529Z,9.30
2023-05-04T00:19:20.488Z,8.20
2023-05-04T00:21:47.296Z,8.70
2023-05-04T00:24:14.228Z,9.60
2023-05-04T00:26:41.373Z,10.00
2023-05-04T00:29:08.219Z,9.90
2023-05-04T00:31:35.098Z,9.90
2023-05-04T00:34:02.104Z,11.70
2023-05-04T00:36:29.011Z,15.10
2023-05-04T00:38:55.870Z,15.40
2023-05-04T00:41:22.643Z,17.60
2023-05-04T00:43:50.041Z,19.00
2023-05-04T00:46:16.799Z,17.30
2023-05-04T00:48:45.841Z,14.90
2023-05-04T00:51:13.175Z,12.80
2023-05-04T00:53:40.061Z,9.80
2023-05-04T00:56:07.103Z,9.80
2023-05-04T00:58:34.116Z,9.20
2023-05-04T01:01:01.798Z,9.10
2023-05-04T01:03:29.025Z,8.20
2023-05-04T01:06:21.855Z,8.70
2023-05-04T01:09:03.404Z,8.90
2023-05-04T01:11:40.750Z,9.10
2023-05-04T01:14:07.903Z,9.40
2023-05-04T01:16:34.938Z,8.90
2023-05-04T01:19:03.428Z,9.90
2023-05-04T01:23:58.109Z,9.00
2023-05-04T01:26:27.796Z,9.60
2023-05-04T01:29:00.342Z,8.80
2023-05-04T01:31:28.076Z,9.20
2023-05-04T01:33:55.695Z,8.40
2023-05-04T01:36:22.679Z,9.20
2023-05-04T01:38:53.265Z,8.60
2023-05-04T01:41:20.911Z,9.60
2023-05-04T01:43:48.715Z,9.90
2023-05-04T01:46:15.460Z,9.10
2023-05-04T01:48:42.332Z,11.80
2023-05-04T01:51:09.194Z,12.50
2023-05-04T01:53:36.215Z,13.50
2023-05-04T01:56:03.004Z,15.40
2023-05-04T01:58:30.001Z,15.70
2023-05-04T02:00:58.679Z,14.60
2023-05-04T02:03:25.896Z,13.60
2023-05-04T02:05:52.845Z,12.40
2023-05-04T02:08:19.806Z,12.00
2023-05-04T02:10:47.405Z,11.40
2023-05-04T02:13:15.464Z,10.40
2023-05-04T02:15:42.645Z,10.30
2023-05-04T02:18:10.633Z,10.80
2023-05-04T02:20:38.030Z,9.30
2023-05-04T02:23:05.389Z,9.30
2023-05-04T02:25:32.225Z,8.60
2023-05-04T02:27:58.956Z,10.10
2023-05-04T02:30:26.174Z,9.10
2023-05-04T02:32:53.245Z,11.20
2023-05-04T02:35:22.254Z,12.60
2023-05-04T02:37:49.079Z,20.40
2023-05-04T02:40:16.248Z,23.10
2023-05-04T02:42:43.085Z,24.00
2023-05-04T02:45:10.318Z,22.20
2023-05-04T02:47:37.401Z,20.20
2023-05-04T02:50:05.229Z,17.00
2023-05-04T02:52:33.320Z,14.00
2023-05-04T02:55:00.982Z,13.20
2023-05-04T02:57:27.820Z,12.70
2023-05-04T02:59:54.689Z,10.90
2023-05-04T03:02:21.456Z,11.10
2023-05-04T03:04:48.457Z,10.70
2023-05-04T03:07:15.303Z,10.30
2023-05-04T03:09:42.138Z,11.70
2023-05-04T03:12:08.972Z,10.10
2023-05-04T03:14:36.437Z,11.50
2023-05-04T03:17:03.323Z,10.60
2023-05-04T03:19:30.592Z,11.50
2023-05-04T03:21:57.431Z,11.80
2023-05-04T03:24:24.826Z,10.60
2023-05-04T03:26:51.979Z,13.20
2023-05-04T03:29:18.817Z,14.50
2023-05-04T03:31:45.835Z,16.30
2023-05-04T03:34:14.767Z,16.50
2023-05-04T03:36:41.901Z,12.70
2023-05-04T03:39:08.860Z,13.00
2023-05-04T03:41:37.125Z,10.50
2023-05-04T03:44:04.114Z,10.70
2023-05-04T03:46:31.973Z,10.10
2023-05-04T03:48:58.776Z,9.80
2023-05-04T03:51:25.709Z,9.00
2023-05-04T03:53:52.561Z,11.00
2023-05-04T03:56:19.442Z,12.10
2023-05-04T03:58:46.274Z,10.20
2023-05-04T04:01:13.911Z,11.10
2023-05-04T04:03:41.130Z,10.50
2023-05-04T04:06:09.233Z,11.00
2023-05-04T04:08:36.379Z,10.60
2023-05-04T04:11:03.439Z,10.20
2023-05-04T04:13:30.774Z,8.90
2023-05-04T04:15:57.653Z,8.70
2023-05-04T04:18:24.748Z,9.00
2023-05-04T04:20:51.477Z,9.00
2023-05-04T04:23:18.714Z,8.40
2023-05-04T04:25:45.886Z,9.70
2023-05-04T04:28:16.090Z,9.30
2023-05-04T04:30:42.869Z,9.00
2023-05-04T04:33:09.653Z,9.00
2023-05-04T04:35:36.763Z,7.70
2023-05-04T04:38:04.037Z,7.60
2023-05-04T04:40:31.404Z,8.70
2023-05-04T04:42:58.316Z,9.20
2023-05-04T04:45:25.192Z,7.30
2023-05-04T04:47:52.270Z,8.00
2023-05-04T04:50:19.245Z,7.50
2023-05-04T04:52:46.043Z,8.00
2023-05-04T04:55:14.983Z,7.90
2023-05-04T04:57:41.757Z,8.20
2023-05-04T05:00:09.702Z,8.50
2023-05-04T05:02:37.373Z,7.30
2023-05-04T05:05:04.569Z,7.20
2023-05-04T05:07:32.279Z,7.50
2023-05-04T05:09:59.320Z,6.80
2023-05-04T05:12:26.254Z,7.40
2023-05-04T05:14:53.183Z,7.80
2023-05-04T05:17:20.145Z,7.40
2023-05-04T05:19:47.578Z,7.50
2023-05-04T05:22:14.543Z,7.30
2023-05-04T05:24:41.844Z,7.10
2023-05-04T05:27:08.840Z,7.70
2023-05-04T05:29:36.604Z,7.00
2023-05-04T05:32:03.890Z,7.50
2023-05-04T05:34:30.767Z,8.20
2023-05-04T05:36:57.805Z,7.60
2023-05-04T05:39:24.641Z,7.40
2023-05-04T05:41:57.061Z,8.00
2023-05-04T05:44:24.021Z,6.90
2023-05-04T05:46:50.768Z,7.50
2023-05-04T05:49:17.690Z,7.60
2023-05-04T05:51:44.636Z,7.00
2023-05-04T05:54:11.492Z,6.70
2023-05-04T05:56:38.221Z,5.80
2023-05-04T05:59:05.749Z,6.30
2023-05-04T06:04:00.640Z,6.50
2023-05-04T06:06:27.809Z,6.60
2023-05-04T06:08:54.607Z,6.60
2023-05-04T06:11:22.338Z,6.70
2023-05-04T06:13:49.336Z,6.40
2023-05-04T06:16:16.339Z,6.30
2023-05-04T06:18:43.230Z,5.60
2023-05-04T06:21:10.220Z,6.60
2023-05-04T06:23:37.035Z,6.70
2023-05-04T06:26:10.112Z,5.70
2023-05-04T06:28:37.154Z,6.10
2023-05-04T06:31:04.041Z,6.40
2023-05-04T06:33:31.554Z,7.20
2023-05-04T06:35:58.412Z,5.70
2023-05-04T06:38:25.383Z,6.00
2023-05-04T06:40:52.429Z,6.60
2023-05-04T06:43:19.790Z,6.10
2023-05-04T06:45:46.753Z,5.60
2023-05-04T06:48:13.777Z,5.80
2023-05-04T06:50:40.542Z,6.20
2023-05-04T06:53:08.997Z,5.50
2023-05-04T06:55:36.654Z,6.40
2023-05-04T06:58:03.672Z,5.80
2023-05-04T07:00:31.561Z,5.80
2023-05-04T07:02:58.401Z,6.60
2023-05-04T07:05:25.661Z,6.50
2023-05-04T07:07:52.909Z,6.10
2023-05-04T07:10:19.796Z,6.60
2023-05-04T07:12:46.957Z,6.00
2023-05-04T07:15:14.076Z,6.10
2023-05-04T07:17:41.456Z,7.20
2023-05-04T07:20:08.735Z,6.50
2023-05-04T07:22:36.015Z,6.80
2023-05-04T07:25:03.165Z,7.00
2023-05-04T07:27:30.803Z,6.90
2023-05-04T07:29:57.986Z,6.40
2023-05-04T07:32:25.119Z,5.30
2023-05-04T07:34:52.136Z,6.10
2023-05-04T07:37:19.020Z,6.30
2023-05-04T07:39:45.755Z,5.40
2023-05-04T07:42:12.787Z,6.60
2023-05-04T07:44:40.717Z,5.90
2023-05-04T07:47:07.612Z,6.20
2023-05-04T07:49:34.545Z,6.40
2023-05-04T07:52:01.490Z,5.80
2023-05-04T07:54:28.543Z,7.40
2023-05-04T07:56:55.600Z,7.30
2023-05-04T07:59:22.536Z,6.20
2023-05-04T08:01:49.508Z,6.50
2023-05-04T08:04:16.325Z,6.70
2023-05-04T08:06:43.295Z,6.80
2023-05-04T08:09:10.423Z,7.90
2023-05-04T08:11:39.141Z,7.80
2023-05-04T08:14:06.087Z,7.20
2023-05-04T08:16:33.188Z,7.00
2023-05-04T08:19:00.814Z,6.50
2023-05-04T08:21:27.750Z,7.40
2023-05-04T08:23:54.685Z,6.50
2023-05-04T08:26:21.518Z,8.10
2023-05-04T08:28:50.476Z,8.60
2023-05-04T08:31:20.869Z,7.30
2023-05-04T08:33:47.902Z,7.20
2023-05-04T08:36:15.005Z,8.90
2023-05-04T08:38:41.843Z,7.80
2023-05-04T08:41:10.525Z,9.00
2023-05-04T08:43:37.744Z,8.00
2023-05-04T08:46:05.840Z,6.70
2023-05-04T08:48:36.446Z,6.20
2023-05-04T08:51:06.107Z,7.00
2023-05-04T08:53:36.047Z,8.80
2023-05-04T08:56:03.850Z,6.30
2023-05-04T08:58:31.159Z,7.50
2023-05-04T09:00:58.650Z,6.80
2023-05-04T09:03:26.060Z,6.10
2023-05-04T09:05:53.596Z,8.80
2023-05-04T09:08:21.006Z,6.80
2023-05-04T09:10:47.910Z,5.80
2023-05-04T09:13:15.618Z,5.80
2023-05-04T09:15:42.462Z,6.10
2023-05-04T09:18:09.443Z,6.60
2023-05-04T09:20:44.562Z,6.30
2023-05-04T09:23:11.710Z,5.60
2023-05-04T09:25:51.729Z,6.70
2023-05-04T09:28:21.015Z,5.80
2023-05-04T09:30:48.451Z,5.90
2023-05-04T09:33:16.002Z,5.90
2023-05-04T09:35:46.179Z,6.40
2023-05-04T09:38:26.128Z,6.40
2023-05-04T09:40:52.996Z,7.10
2023-05-04T09:43:20.063Z,7.30
2023-05-04T09:45:47.418Z,6.90
2023-05-04T09:48:19.519Z,9.00
2023-05-04T09:50:53.983Z,7.50
2023-05-04T09:53:22.759Z,7.70
2023-05-04T09:56:00.701Z,7.50
2023-05-04T09:58:30.111Z,7.40
2023-05-04T10:00:58.512Z,7.00
2023-05-04T10:03:26.025Z,6.70
2023-05-04T10:05:53.708Z,7.90
2023-05-04T10:08:20.710Z,7.80
2023-05-04T10:10:47.564Z,7.00
2023-05-04T10:13:15.085Z,6.90
2023-05-04T10:15:50.975Z,8.20
2023-05-04T10:19:29.501Z,7.90
2023-05-04T10:22:31.456Z,7.40
2023-05-04T10:25:14.212Z,7.50
2023-05-04T10:28:01.809Z,6.70
2023-05-04T10:30:28.856Z,7.10
2023-05-04T10:32:56.825Z,7.40
2023-05-04T10:35:24.056Z,6.50
2023-05-04T10:37:55.204Z,6.50
2023-05-04T10:40:35.539Z,6.80
2023-05-04T10:43:02.508Z,6.80
2023-05-04T10:45:39.526Z,7.90
2023-05-04T10:48:07.996Z,6.00
2023-05-04T10:50:45.229Z,6.70
2023-05-04T10:53:14.009Z,7.30
2023-05-04T10:55:45.557Z,6.30
2023-05-04T10:58:16.006Z,6.60
2023-05-04T11:00:46.003Z,6.80
2023-05-04T11:03:13.441Z,6.90
2023-05-04T11:05:45.022Z,7.40
2023-05-04T11:08:16.331Z,6.60
2023-05-04T11:10:43.200Z,6.30
2023-05-04T11:13:11.523Z,6.80
2023-05-04T11:15:51.638Z,7.00
2023-05-04T11:18:36.990Z,6.60
2023-05-04T11:21:03.765Z,7.40
2023-05-04T11:23:30.961Z,7.90
2023-05-04T11:25:57.768Z,7.40
2023-05-04T11:28:34.215Z,7.80
2023-05-04T11:31:12.138Z,7.00
2023-05-04T11:33:46.504Z,7.10
2023-05-04T11:36:13.293Z,6.60
2023-05-04T11:38:40.322Z,7.70
2023-05-04T11:41:07.977Z,7.40
2023-05-04T11:43:37.110Z,7.00
2023-05-04T11:48:31.694Z,6.60
2023-05-04T11:50:58.676Z,7.30
2023-05-04T11:53:26.329Z,6.40
2023-05-04T11:55:53.935Z,7.00
2023-05-04T11:58:24.876Z,8.90
2023-05-04T12:00:56.026Z,8.90
2023-05-04T12:03:39.720Z,7.20
2023-05-04T12:06:14.455Z,9.00
2023-05-04T12:08:41.720Z,12.00
2023-05-04T12:11:16.144Z,8.20
2023-05-04T12:13:44.533Z,7.80
2023-05-04T12:16:12.137Z,7.60
2023-05-04T12:18:38.995Z,8.60
2023-05-04T12:21:17.989Z,10.30
2023-05-04T12:23:45.533Z,9.40
2023-05-04T12:26:12.365Z,7.10
2023-05-04T12:28:41.126Z,6.70
2023-05-04T12:31:08.211Z,8.80
2023-05-04T12:33:35.570Z,7.40
2023-05-04T12:36:03.916Z,8.30
2023-05-04T12:38:31.172Z,6.80
2023-05-04T12:41:00.214Z,6.60
2023-05-04T12:43:26.966Z,9.00
2023-05-04T12:45:53.904Z,8.50
2023-05-04T12:48:21.149Z,8.10
2023-05-04T12:50:48.808Z,8.70
2023-05-04T12:53:16.481Z,7.90
2023-05-04T12:55:43.431Z,7.40
2023-05-04T12:58:10.478Z,6.90
2023-05-04T13:00:38.129Z,8.00
2023-05-04T13:03:05.210Z,9.40
2023-05-04T13:05:33.127Z,8.30
2023-05-04T13:08:00.264Z,10.40
2023-05-04T13:10:27.527Z,8.00
2023-05-04T13:12:54.332Z,10.00
2023-05-04T13:15:21.203Z,10.80
2023-05-04T13:17:48.074Z,10.70
2023-05-04T13:20:15.527Z,9.40
2023-05-04T13:22:45.859Z,12.20
2023-05-04T13:25:13.133Z,11.70
2023-05-04T13:27:40.138Z,8.80
2023-05-04T13:30:08.607Z,8.00
2023-05-04T13:32:35.760Z,8.30
2023-05-04T13:35:04.118Z,7.40
2023-05-04T13:37:31.322Z,6.70
2023-05-04T13:39:58.909Z,7.20
2023-05-04T13:42:26.023Z,7.60
2023-05-04T13:44:52.804Z,6.70
2023-05-04T13:47:19.555Z,7.50
2023-05-04T13:49:46.282Z,9.00
2023-05-04T13:52:13.501Z,7.10
2023-05-04T13:54:40.807Z,6.60
2023-05-04T13:57:07.529Z,8.40
2023-05-04T13:59:34.505Z,9.90
2023-05-04T14:02:01.515Z,11.20
2023-05-04T14:04:29.684Z,7.00
2023-05-04T14:06:57.111Z,6.90
2023-05-04T14:09:25.177Z,8.50
2023-05-04T14:11:52.997Z,8.80
2023-05-04T14:14:21.383Z,6.60
2023-05-04T14:16:48.183Z,8.60
2023-05-04T14:19:14.997Z,8.30
2023-05-04T14:21:41.708Z,8.90
2023-05-04T14:24:08.522Z,11.00
2023-05-04T14:26:35.592Z,8.30
2023-05-04T14:29:03.049Z,7.00
2023-05-04T14:31:30.414Z,8.00
2023-05-04T14:33:57.189Z,9.40
2023-05-04T14:36:24.033Z,9.50
2023-05-04T14:38:50.773Z,7.30
2023-05-04T14:41:17.801Z,8.00
2023-05-04T14:43:44.609Z,7.70
2023-05-04T14:46:12.533Z,8.10
2023-05-04T14:48:39.645Z,8.60
2023-05-04T14:51:06.504Z,9.00
2023-05-04T14:53:36.915Z,10.00
2023-05-04T14:56:05.059Z,9.40
2023-05-04T14:58:32.001Z,8.90
2023-05-04T15:00:59.138Z,8.20
2023-05-04T15:03:26.209Z,9.60
2023-05-04T15:05:54.151Z,9.40
2023-05-04T15:08:21.830Z,9.10
2023-05-04T15:10:48.617Z,9.60
2023-05-04T15:13:17.266Z,10.70
2023-05-04T15:15:44.330Z,7.40
2023-05-04T15:18:11.857Z,9.20
2023-05-04T15:20:38.954Z,8.20
2023-05-04T15:23:11.600Z,8.30
2023-05-04T15:25:38.982Z,8.60
2023-05-04T15:28:15.722Z,8.20
2023-05-04T15:30:42.918Z,7.50
2023-05-04T15:33:09.820Z,11.50
2023-05-04T15:35:37.653Z,12.00
2023-05-04T15:38:04.624Z,10.10
2023-05-04T15:40:31.632Z,10.10
2023-05-04T15:42:58.681Z,8.20
2023-05-04T15:45:25.619Z,7.70
2023-05-04T15:47:53.885Z,8.00
2023-05-04T15:50:21.035Z,9.20
2023-05-04T15:52:47.890Z,10.00
2023-05-04T15:55:25.543Z,9.00
2023-05-04T15:57:53.559Z,8.80
2023-05-04T16:00:20.959Z,8.50
2023-05-04T16:02:47.812Z,9.10
2023-05-04T16:05:14.830Z,8.40
2023-05-04T16:07:41.650Z,10.10
2023-05-04T16:10:09.772Z,9.10
2023-05-04T16:12:40.358Z,7.80
2023-05-04T16:15:07.486Z,10.80
2023-05-04T16:17:34.865Z,10.00
2023-05-04T16:20:03.034Z,9.00
2023-05-04T16:22:30.624Z,10.20
2023-05-04T16:24:57.329Z,8.60
2023-05-04T16:27:26.279Z,8.80
2023-05-04T16:29:53.259Z,9.30
2023-05-04T16:32:20.593Z,8.70
2023-05-04T16:34:47.473Z,9.90
2023-05-04T16:37:15.454Z,7.30
2023-05-04T16:39:42.238Z,8.20
2023-05-04T16:42:09.187Z,8.30
2023-05-04T16:44:36.805Z,10.40
2023-05-04T16:47:03.712Z,8.90
2023-05-04T16:49:31.601Z,10.60
2023-05-04T16:51:58.433Z,8.20
2023-05-04T16:54:25.642Z,8.30
2023-05-04T16:56:52.502Z,8.30
2023-05-04T16:59:19.304Z,9.10
2023-05-04T17:01:46.513Z,8.80
2023-05-04T17:04:13.300Z,12.30
2023-05-04T17:06:40.166Z,14.80
2023-05-04T17:09:07.003Z,14.30
2023-05-04T17:11:33.989Z,10.50
2023-05-04T17:14:01.000Z,8.30
2023-05-04T17:16:27.960Z,8.30
2023-05-04T17:18:54.888Z,8.60
2023-05-04T17:21:22.038Z,9.50
2023-05-04T17:23:48.845Z,8.80
2023-05-04T17:26:16.020Z,7.90
2023-05-04T17:28:42.856Z,5.90
2023-05-04T17:31:11.832Z,6.70
2023-05-04T17:33:39.419Z,5.50
2023-05-04T17:36:07.145Z,5.10
2023-05-04T17:38:34.557Z,5.00
2023-05-04T17:41:01.616Z,5.40
2023-05-04T17:43:28.729Z,5.10
2023-05-04T17:45:56.103Z,5.90
2023-05-04T17:48:23.440Z,5.00
2023-05-04T17:50:50.972Z,6.40
2023-05-04T17:53:17.941Z,6.40
2023-05-04T17:55:45.392Z,8.00
2023-05-04T17:58:12.249Z,7.00
2023-05-04T18:00:39.110Z,8.50
2023-05-04T18:03:06.136Z,6.60
2023-05-04T18:05:33.379Z,7.30
2023-05-04T18:08:00.299Z,7.60
2023-05-04T18:10:27.160Z,7.10
2023-05-04T18:12:55.979Z,7.20
2023-05-04T18:15:23.707Z,7.60
2023-05-04T18:17:50.687Z,7.80
2023-05-04T18:20:17.499Z,6.60
2023-05-04T18:22:44.806Z,6.80
2023-05-04T18:25:12.988Z,5.20
2023-05-04T18:27:39.886Z,5.20
2023-05-04T18:30:08.120Z,5.30
2023-05-04T18:32:36.222Z,4.40
2023-05-04T18:35:03.537Z,3.90
2023-05-04T18:37:30.814Z,4.30
2023-05-04T18:39:58.080Z,4.80
2023-05-04T18:42:25.020Z,4.80
2023-05-04T18:44:52.787Z,4.60
2023-05-04T18:47:19.842Z,4.70
2023-05-04T18:49:51.726Z,5.00
2023-05-04T18:52:18.533Z,4.50
2023-05-04T18:54:45.686Z,5.40
2023-05-04T18:57:13.649Z,6.00
2023-05-04T18:59:40.624Z,8.30
2023-05-04T19:02:08.908Z,8.50
2023-05-04T19:04:36.256Z,10.00
2023-05-04T19:07:03.169Z,9.90
2023-05-04T19:09:31.065Z,11.60
2023-05-04T19:11:57.890Z,11.40
2023-05-04T19:14:28.140Z,10.40
2023-05-04T19:16:57.607Z,12.30
2023-05-04T19:19:25.464Z,10.90
2023-05-04T19:21:52.512Z,11.90
2023-05-04T19:24:19.451Z,10.90
2023-05-04T19:26:46.708Z,11.30
2023-05-04T19:29:13.559Z,9.90
2023-05-04T19:31:40.810Z,7.80
2023-05-04T19:34:07.746Z,6.50
2023-05-04T19:36:35.029Z,6.20
2023-05-04T19:39:01.871Z,7.90
2023-05-04T19:41:28.987Z,7.70
2023-05-04T19:43:56.445Z,8.30
2023-05-04T19:46:24.172Z,9.20
2023-05-04T19:48:51.084Z,10.60
2023-05-04T19:51:17.938Z,9.80
2023-05-04T19:53:44.838Z,10.00
2023-05-04T19:56:11.775Z,8.70
2023-05-04T19:58:38.786Z,9.10
2023-05-04T20:01:05.812Z,7.20
2023-05-04T20:03:32.717Z,7.80
2023-05-04T20:06:02.935Z,7.90
2023-05-04T20:08:30.296Z,8.10
2023-05-04T20:10:57.237Z,8.30
2023-05-04T20:13:25.054Z,7.10
2023-05-04T20:15:51.937Z,9.40
2023-05-04T20:18:19.552Z,6.70
2023-05-04T20:20:46.400Z,6.80
2023-05-04T20:23:13.283Z,6.10
2023-05-04T20:25:40.540Z,6.40
2023-05-04T20:28:07.443Z,4.90
2023-05-04T20:30:34.256Z,5.00
2023-05-04T20:33:01.065Z,5.10
2023-05-04T20:35:28.213Z,5.00
2023-05-04T20:37:54.895Z,5.50
2023-05-04T20:40:21.996Z,7.40
2023-05-04T20:42:48.897Z,7.20
2023-05-04T20:45:15.762Z,5.50
2023-05-04T20:47:42.705Z,5.60
2023-05-04T20:50:11.241Z,5.30
2023-05-04T20:52:38.602Z,4.60
2023-05-04T20:55:06.900Z,4.60
2023-05-04T21:00:01.095Z,4.80
2023-05-04T21:02:28.733Z,5.10
2023-05-04T21:04:55.638Z,7.30
2023-05-04T21:07:22.339Z,7.70
2023-05-04T21:09:49.128Z,7.80
2023-05-04T21:12:16.064Z,7.20
2023-05-04T21:14:43.313Z,7.80
2023-05-04T21:17:10.136Z,5.40
2023-05-04T21:19:37.306Z,5.20
2023-05-04T21:22:04.024Z,5.10
2023-05-04T21:24:32.630Z,4.90
2023-05-04T21:26:59.583Z,4.30
2023-05-04T21:29:26.625Z,3.70
2023-05-04T21:31:53.775Z,4.40
2023-05-04T21:34:20.856Z,7.10
2023-05-04T21:36:47.605Z,7.00
2023-05-04T21:39:15.459Z,7.90
2023-05-04T21:41:42.321Z,5.00
2023-05-04T21:44:09.109Z,4.60
2023-05-04T21:46:35.944Z,4.50
2023-05-04T21:49:03.409Z,4.60
2023-05-04T21:51:31.126Z,4.60
2023-05-04T21:53:58.020Z,4.80
2023-05-04T21:56:24.957Z,4.50
2023-05-04T21:58:51.905Z,3.60
2023-05-04T22:01:19.266Z,4.00
2023-05-04T22:03:46.178Z,3.60
2023-05-04T22:06:13.182Z,3.90
2023-05-04T22:08:40.304Z,3.70
2023-05-04T22:11:07.237Z,3.90
2023-05-04T22:13:34.443Z,3.70
2023-05-04T22:16:01.295Z,4.20
2023-05-04T22:18:28.277Z,3.80
2023-05-04T22:20:55.181Z,4.20
2023-05-04T22:23:22.049Z,4.30
2023-05-04T22:25:48.799Z,4.30
2023-05-04T22:28:15.742Z,3.80
2023-05-04T22:30:42.930Z,4.30
2023-05-04T22:33:09.714Z,4.40
2023-05-04T22:35:36.605Z,5.80
2023-05-04T22:38:04.480Z,6.60
2023-05-04T22:40:31.490Z,5.70
2023-05-04T22:42:58.350Z,5.30
2023-05-04T22:45:25.176Z,5.10
2023-05-04T22:47:52.211Z,4.50
2023-05-04T22:50:19.378Z,5.00
2023-05-04T22:52:46.180Z,5.30
2023-05-04T22:55:13.159Z,4.10
2023-05-04T22:57:39.998Z,4.30
2023-05-04T23:00:08.144Z,4.80
2023-05-04T23:02:36.347Z,5.60
2023-05-04T23:05:04.352Z,6.00
2023-05-04T23:07:31.561Z,6.80
2023-05-04T23:09:59.606Z,6.80
2023-05-04T23:12:27.122Z,5.20
2023-05-04T23:14:54.245Z,6.10
2023-05-04T23:17:21.533Z,5.80
2023-05-04T23:19:48.288Z,5.40
2023-05-04T23:22:15.424Z,5.70
2023-05-04T23:24:42.586Z,5.80
2023-05-04T23:27:10.564Z,6.20
2023-05-04T23:29:37.462Z,6.20
2023-05-04T23:32:04.915Z,5.70
2023-05-04T23:34:33.022Z,4.90
2023-05-04T23:37:00.090Z,5.50
2023-05-04T23:39:27.283Z,4.90
2023-05-04T23:41:54.049Z,4.60
2023-05-04T23:44:21.233Z,4.80
2023-05-04T23:46:48.102Z,4.40
2023-05-04T23:49:15.772Z,4.60
2023-05-04T23:51:42.605Z,4.30
2023-05-04T23:54:09.489Z,4.50
2023-05-04T23:56:36.816Z,4.40
2023-05-04T23:59:03.662Z,4.80
